Terminal Aerodrome Forecast
Issued by NWS Cleveland, OH

Home | Current Version | Previous Version | Text Only | Print | Product List | Glossary Off
Versions: 1 2 3 4 5 6 7 8 9 10 11 12 13 14 15 16 17 18 19 20 21

000
FTUS41 KCLE 271400 AAA
TAFMFD
TAF AMD
KMFD 271458Z 2715/2812 33010KT 3SM -SN SCT012 OVC020
      TEMPO 2715/2719 2SM -SN OVC012
     FM272200 34005KT P6SM SCT012 OVC020
     FM280300 33003KT 6SM BR SCT020=

USA.gov is the U.S. government's official web portal to all federal, state and local government web resources and services.